sensor_id;sensor_type;location;lat;lon;timestamp;temperature;humidity
16347;DHT22;8283;48.504;13.734;2024-01-30T00:01:54;3.10;75.80
16347;DHT22;8283;48.504;13.734;2024-01-30T00:04:13;3.10;75.80
16347;DHT22;8283;48.504;13.734;2024-01-30T00:06:32;2.10;75.20
16347;DHT22;8283;48.504;13.734;2024-01-30T00:08:52;3.10;75.80
16347;DHT22;8283;48.504;13.734;2024-01-30T00:11:12;3.10;75.80
16347;DHT22;8283;48.504;13.734;2024-01-30T00:13:31;3.10;75.80
16347;DHT22;8283;48.504;13.734;2024-01-30T00:15:51;3.10;75.80
16347;DHT22;8283;48.504;13.734;2024-01-30T00:18:10;3.10;75.80
16347;DHT22;8283;48.504;13.734;2024-01-30T00:20:29;3.00;75.70
16347;DHT22;8283;48.504;13.734;2024-01-30T00:22:49;3.00;75.70
16347;DHT22;8283;48.504;13.734;2024-01-30T00:25:08;3.00;75.70
16347;DHT22;8283;48.504;13.734;2024-01-30T00:27:27;3.00;75.70
16347;DHT22;8283;48.504;13.734;2024-01-30T00:29:47;3.00;75.70
16347;DHT22;8283;48.504;13.734;2024-01-30T00:32:06;3.00;75.70
16347;DHT22;8283;48.504;13.734;2024-01-30T00:34:25;2.90;75.80
16347;DHT22;8283;48.504;13.734;2024-01-30T00:36:45;2.90;75.90
16347;DHT22;8283;48.504;13.734;2024-01-30T00:39:04;2.90;75.90
16347;DHT22;8283;48.504;13.734;2024-01-30T00:41:26;2.90;76.10
16347;DHT22;8283;48.504;13.734;2024-01-30T00:43:45;2.90;76.10
16347;DHT22;8283;48.504;13.734;2024-01-30T00:46:05;2.90;76.10
16347;DHT22;8283;48.504;13.734;2024-01-30T00:48:24;2.80;76.20
16347;DHT22;8283;48.504;13.734;2024-01-30T00:50:44;2.80;76.10
16347;DHT22;8283;48.504;13.734;2024-01-30T00:53:03;2.80;76.30
16347;DHT22;8283;48.504;13.734;2024-01-30T00:55:23;2.80;76.30
16347;DHT22;8283;48.504;13.734;2024-01-30T00:57:42;2.80;76.30
16347;DHT22;8283;48.504;13.734;2024-01-30T01:00:03;2.80;76.30
16347;DHT22;8283;48.504;13.734;2024-01-30T01:02:22;2.80;76.30
16347;DHT22;8283;48.504;13.734;2024-01-30T01:04:41;2.80;76.40
16347;DHT22;8283;48.504;13.734;2024-01-30T01:07:00;2.80;76.30
16347;DHT22;8283;48.504;13.734;2024-01-30T01:09:19;2.80;76.30
16347;DHT22;8283;48.504;13.734;2024-01-30T01:11:39;2.80;76.30
16347;DHT22;8283;48.504;13.734;2024-01-30T01:13:59;2.80;76.50
16347;DHT22;8283;48.504;13.734;2024-01-30T01:16:18;2.80;76.50
16347;DHT22;8283;48.504;13.734;2024-01-30T01:18:37;2.80;76.60
16347;DHT22;8283;48.504;13.734;2024-01-30T01:20:57;2.80;76.70
16347;DHT22;8283;48.504;13.734;2024-01-30T01:23:16;2.80;76.60
16347;DHT22;8283;48.504;13.734;2024-01-30T01:25:36;2.70;76.50
16347;DHT22;8283;48.504;13.734;2024-01-30T01:27:55;2.80;76.50
16347;DHT22;8283;48.504;13.734;2024-01-30T01:30:15;2.80;76.70
16347;DHT22;8283;48.504;13.734;2024-01-30T01:32:41;2.80;76.60
16347;DHT22;8283;48.504;13.734;2024-01-30T01:35:08;2.70;76.70
16347;DHT22;8283;48.504;13.734;2024-01-30T01:37:27;2.80;76.60
16347;DHT22;8283;48.504;13.734;2024-01-30T01:39:46;2.70;76.60
16347;DHT22;8283;48.504;13.734;2024-01-30T01:42:06;2.70;76.60
16347;DHT22;8283;48.504;13.734;2024-01-30T01:44:26;2.70;76.60
16347;DHT22;8283;48.504;13.734;2024-01-30T01:46:47;2.70;76.50
16347;DHT22;8283;48.504;13.734;2024-01-30T01:49:07;2.70;76.70
16347;DHT22;8283;48.504;13.734;2024-01-30T01:51:27;2.70;76.60
16347;DHT22;8283;48.504;13.734;2024-01-30T01:53:47;2.70;76.60
16347;DHT22;8283;48.504;13.734;2024-01-30T01:56:07;2.60;76.50
16347;DHT22;8283;48.504;13.734;2024-01-30T01:58:27;2.60;76.50
16347;DHT22;8283;48.504;13.734;2024-01-30T02:00:50;2.60;76.60
16347;DHT22;8283;48.504;13.734;2024-01-30T02:03:11;2.60;76.80
16347;DHT22;8283;48.504;13.734;2024-01-30T02:05:31;2.60;76.70
16347;DHT22;8283;48.504;13.734;2024-01-30T02:07:51;2.60;76.70
16347;DHT22;8283;48.504;13.734;2024-01-30T02:10:11;2.60;76.50
16347;DHT22;8283;48.504;13.734;2024-01-30T02:12:31;2.60;76.50
16347;DHT22;8283;48.504;13.734;2024-01-30T02:14:50;2.60;76.70
16347;DHT22;8283;48.504;13.734;2024-01-30T02:17:10;2.60;76.70
16347;DHT22;8283;48.504;13.734;2024-01-30T02:19:29;2.60;76.80
16347;DHT22;8283;48.504;13.734;2024-01-30T02:21:49;2.60;76.70
16347;DHT22;8283;48.504;13.734;2024-01-30T02:24:09;2.50;76.70
16347;DHT22;8283;48.504;13.734;2024-01-30T02:26:28;2.60;76.80
16347;DHT22;8283;48.504;13.734;2024-01-30T02:28:48;2.30;76.60
16347;DHT22;8283;48.504;13.734;2024-01-30T02:31:07;2.50;76.80
16347;DHT22;8283;48.504;13.734;2024-01-30T02:33:26;2.50;76.80
16347;DHT22;8283;48.504;13.734;2024-01-30T02:35:46;2.50;76.80
16347;DHT22;8283;48.504;13.734;2024-01-30T02:38:05;2.50;76.80
16347;DHT22;8283;48.504;13.734;2024-01-30T02:40:24;2.50;76.80
16347;DHT22;8283;48.504;13.734;2024-01-30T02:42:44;2.50;76.90
16347;DHT22;8283;48.504;13.734;2024-01-30T02:45:04;2.50;76.90
16347;DHT22;8283;48.504;13.734;2024-01-30T02:47:23;2.50;76.70
16347;DHT22;8283;48.504;13.734;2024-01-30T02:49:42;2.50;76.90
16347;DHT22;8283;48.504;13.734;2024-01-30T02:52:03;2.50;77.00
16347;DHT22;8283;48.504;13.734;2024-01-30T02:54:22;2.40;76.90
16347;DHT22;8283;48.504;13.734;2024-01-30T02:56:41;2.40;76.80
16347;DHT22;8283;48.504;13.734;2024-01-30T02:59:00;2.70;77.00
16347;DHT22;8283;48.504;13.734;2024-01-30T03:01:20;2.50;77.00
16347;DHT22;8283;48.504;13.734;2024-01-30T03:03:39;2.50;77.10
16347;DHT22;8283;48.504;13.734;2024-01-30T03:06:00;2.40;77.10
16347;DHT22;8283;48.504;13.734;2024-01-30T03:08:19;2.50;77.20
16347;DHT22;8283;48.504;13.734;2024-01-30T03:10:39;2.40;77.20
16347;DHT22;8283;48.504;13.734;2024-01-30T03:12:58;2.40;77.20
16347;DHT22;8283;48.504;13.734;2024-01-30T03:15:17;2.40;77.10
16347;DHT22;8283;48.504;13.734;2024-01-30T03:17:37;2.40;77.10
16347;DHT22;8283;48.504;13.734;2024-01-30T03:19:56;2.40;77.10
16347;DHT22;8283;48.504;13.734;2024-01-30T03:22:16;2.40;77.20
16347;DHT22;8283;48.504;13.734;2024-01-30T03:24:35;2.40;77.20
16347;DHT22;8283;48.504;13.734;2024-01-30T03:26:54;2.40;77.10
16347;DHT22;8283;48.504;13.734;2024-01-30T03:29:14;2.40;77.10
16347;DHT22;8283;48.504;13.734;2024-01-30T03:31:34;2.40;77.30
16347;DHT22;8283;48.504;13.734;2024-01-30T03:33:54;2.40;77.20
16347;DHT22;8283;48.504;13.734;2024-01-30T03:36:15;2.40;77.30
16347;DHT22;8283;48.504;13.734;2024-01-30T03:38:34;2.40;77.40
16347;DHT22;8283;48.504;13.734;2024-01-30T03:40:54;2.40;77.30
16347;DHT22;8283;48.504;13.734;2024-01-30T03:43:13;2.40;77.20
16347;DHT22;8283;48.504;13.734;2024-01-30T03:45:32;2.40;77.20
16347;DHT22;8283;48.504;13.734;2024-01-30T03:47:52;2.30;77.10
16347;DHT22;8283;48.504;13.734;2024-01-30T03:50:11;2.40;77.20
16347;DHT22;8283;48.504;13.734;2024-01-30T03:52:30;2.30;77.10
16347;DHT22;8283;48.504;13.734;2024-01-30T03:54:50;1.40;76.50
16347;DHT22;8283;48.504;13.734;2024-01-30T03:57:09;2.30;77.30
16347;DHT22;8283;48.504;13.734;2024-01-30T03:59:29;2.30;77.20
16347;DHT22;8283;48.504;13.734;2024-01-30T04:01:48;2.30;77.30
16347;DHT22;8283;48.504;13.734;2024-01-30T04:04:07;2.30;77.50
16347;DHT22;8283;48.504;13.734;2024-01-30T04:06:27;2.30;77.50
16347;DHT22;8283;48.504;13.734;2024-01-30T04:08:46;2.30;77.50
16347;DHT22;8283;48.504;13.734;2024-01-30T04:11:06;2.30;77.40
16347;DHT22;8283;48.504;13.734;2024-01-30T04:13:25;2.30;77.60
16347;DHT22;8283;48.504;13.734;2024-01-30T04:15:44;2.30;77.70
16347;DHT22;8283;48.504;13.734;2024-01-30T04:18:03;2.20;77.90
16347;DHT22;8283;48.504;13.734;2024-01-30T04:20:23;2.20;77.70
16347;DHT22;8283;48.504;13.734;2024-01-30T04:22:43;2.30;77.80
16347;DHT22;8283;48.504;13.734;2024-01-30T04:25:03;2.20;77.80
16347;DHT22;8283;48.504;13.734;2024-01-30T04:27:23;2.20;77.80
16347;DHT22;8283;48.504;13.734;2024-01-30T04:29:42;2.20;77.70
16347;DHT22;8283;48.504;13.734;2024-01-30T04:32:01;2.20;77.60
16347;DHT22;8283;48.504;13.734;2024-01-30T04:34:20;2.20;77.80
16347;DHT22;8283;48.504;13.734;2024-01-30T04:36:39;2.20;77.80
16347;DHT22;8283;48.504;13.734;2024-01-30T04:38:59;2.20;77.90
16347;DHT22;8283;48.504;13.734;2024-01-30T04:41:18;2.30;77.90
16347;DHT22;8283;48.504;13.734;2024-01-30T04:43:38;2.20;77.80
16347;DHT22;8283;48.504;13.734;2024-01-30T04:45:57;2.20;77.80
16347;DHT22;8283;48.504;13.734;2024-01-30T04:48:16;2.20;77.80
16347;DHT22;8283;48.504;13.734;2024-01-30T04:50:35;2.20;77.90
16347;DHT22;8283;48.504;13.734;2024-01-30T04:52:55;2.30;78.00
16347;DHT22;8283;48.504;13.734;2024-01-30T04:55:14;2.20;77.90
16347;DHT22;8283;48.504;13.734;2024-01-30T04:57:34;2.20;77.90
16347;DHT22;8283;48.504;13.734;2024-01-30T04:59:53;2.20;77.90
16347;DHT22;8283;48.504;13.734;2024-01-30T05:02:13;2.20;77.80
16347;DHT22;8283;48.504;13.734;2024-01-30T05:04:32;2.20;77.90
16347;DHT22;8283;48.504;13.734;2024-01-30T05:06:51;2.20;77.80
16347;DHT22;8283;48.504;13.734;2024-01-30T05:09:11;2.10;77.80
16347;DHT22;8283;48.504;13.734;2024-01-30T05:11:31;2.10;77.80
16347;DHT22;8283;48.504;13.734;2024-01-30T05:13:50;2.10;77.80
16347;DHT22;8283;48.504;13.734;2024-01-30T05:16:09;2.10;77.80
16347;DHT22;8283;48.504;13.734;2024-01-30T05:18:29;2.10;77.80
16347;DHT22;8283;48.504;13.734;2024-01-30T05:20:49;2.10;77.90
16347;DHT22;8283;48.504;13.734;2024-01-30T05:23:09;2.10;77.90
16347;DHT22;8283;48.504;13.734;2024-01-30T05:25:28;2.10;78.00
16347;DHT22;8283;48.504;13.734;2024-01-30T05:27:48;2.10;78.00
16347;DHT22;8283;48.504;13.734;2024-01-30T05:30:07;2.10;78.00
16347;DHT22;8283;48.504;13.734;2024-01-30T05:32:27;2.10;78.00
16347;DHT22;8283;48.504;13.734;2024-01-30T05:34:46;2.00;77.80
16347;DHT22;8283;48.504;13.734;2024-01-30T05:37:06;2.00;77.80
16347;DHT22;8283;48.504;13.734;2024-01-30T05:39:25;2.00;77.80
16347;DHT22;8283;48.504;13.734;2024-01-30T05:41:45;2.00;77.90
16347;DHT22;8283;48.504;13.734;2024-01-30T05:44:06;2.00;77.90
16347;DHT22;8283;48.504;13.734;2024-01-30T05:46:35;2.00;77.90
16347;DHT22;8283;48.504;13.734;2024-01-30T05:48:54;2.00;77.90
16347;DHT22;8283;48.504;13.734;2024-01-30T05:51:13;2.00;78.00
16347;DHT22;8283;48.504;13.734;2024-01-30T05:53:33;2.00;77.90
16347;DHT22;8283;48.504;13.734;2024-01-30T05:55:53;2.00;78.50
16347;DHT22;8283;48.504;13.734;2024-01-30T05:58:12;2.00;77.80
16347;DHT22;8283;48.504;13.734;2024-01-30T06:00:31;2.00;77.90
16347;DHT22;8283;48.504;13.734;2024-01-30T06:02:51;2.00;77.90
16347;DHT22;8283;48.504;13.734;2024-01-30T06:05:10;2.00;78.00
16347;DHT22;8283;48.504;13.734;2024-01-30T06:07:29;2.00;78.00
16347;DHT22;8283;48.504;13.734;2024-01-30T06:09:49;2.00;78.20
16347;DHT22;8283;48.504;13.734;2024-01-30T06:12:08;2.00;78.10
16347;DHT22;8283;48.504;13.734;2024-01-30T06:14:27;1.90;78.00
16347;DHT22;8283;48.504;13.734;2024-01-30T06:16:47;1.90;78.00
16347;DHT22;8283;48.504;13.734;2024-01-30T06:19:06;1.90;78.00
16347;DHT22;8283;48.504;13.734;2024-01-30T06:21:25;1.90;77.90
16347;DHT22;8283;48.504;13.734;2024-01-30T06:23:45;1.90;77.90
16347;DHT22;8283;48.504;13.734;2024-01-30T06:26:06;1.90;77.90
16347;DHT22;8283;48.504;13.734;2024-01-30T06:28:25;1.90;78.00
16347;DHT22;8283;48.504;13.734;2024-01-30T06:30:45;1.80;78.00
16347;DHT22;8283;48.504;13.734;2024-01-30T06:33:05;1.90;78.00
16347;DHT22;8283;48.504;13.734;2024-01-30T06:35:24;1.80;78.10
16347;DHT22;8283;48.504;13.734;2024-01-30T06:37:43;1.80;78.00
16347;DHT22;8283;48.504;13.734;2024-01-30T06:40:02;1.80;78.10
16347;DHT22;8283;48.504;13.734;2024-01-30T06:42:23;1.80;78.20
16347;DHT22;8283;48.504;13.734;2024-01-30T06:44:43;1.80;78.20
16347;DHT22;8283;48.504;13.734;2024-01-30T06:47:02;1.80;78.30
16347;DHT22;8283;48.504;13.734;2024-01-30T06:49:21;1.80;78.20
16347;DHT22;8283;48.504;13.734;2024-01-30T06:51:41;1.70;78.20
16347;DHT22;8283;48.504;13.734;2024-01-30T06:54:01;1.70;78.20
16347;DHT22;8283;48.504;13.734;2024-01-30T06:56:21;1.70;78.30
16347;DHT22;8283;48.504;13.734;2024-01-30T06:58:40;1.70;78.40
16347;DHT22;8283;48.504;13.734;2024-01-30T07:00:59;1.70;78.40
16347;DHT22;8283;48.504;13.734;2024-01-30T07:03:19;1.80;79.40
16347;DHT22;8283;48.504;13.734;2024-01-30T07:05:38;1.70;78.40
16347;DHT22;8283;48.504;13.734;2024-01-30T07:07:57;1.70;78.60
16347;DHT22;8283;48.504;13.734;2024-01-30T07:10:17;1.70;78.60
16347;DHT22;8283;48.504;13.734;2024-01-30T07:12:36;1.80;78.60
16347;DHT22;8283;48.504;13.734;2024-01-30T07:14:55;1.80;78.70
16347;DHT22;8283;48.504;13.734;2024-01-30T07:17:15;1.80;78.70
16347;DHT22;8283;48.504;13.734;2024-01-30T07:19:35;1.80;78.70
16347;DHT22;8283;48.504;13.734;2024-01-30T07:21:54;1.80;78.70
16347;DHT22;8283;48.504;13.734;2024-01-30T07:24:13;1.80;78.80
16347;DHT22;8283;48.504;13.734;2024-01-30T07:26:33;1.80;78.80
16347;DHT22;8283;48.504;13.734;2024-01-30T07:28:52;1.80;78.90
16347;DHT22;8283;48.504;13.734;2024-01-30T07:31:12;1.90;79.00
16347;DHT22;8283;48.504;13.734;2024-01-30T07:33:31;1.90;79.00
16347;DHT22;8283;48.504;13.734;2024-01-30T07:35:52;1.90;79.10
16347;DHT22;8283;48.504;13.734;2024-01-30T07:38:12;2.00;79.30
16347;DHT22;8283;48.504;13.734;2024-01-30T07:40:31;2.00;79.20
16347;DHT22;8283;48.504;13.734;2024-01-30T07:42:53;2.00;79.10
16347;DHT22;8283;48.504;13.734;2024-01-30T07:45:12;2.10;79.20
16347;DHT22;8283;48.504;13.734;2024-01-30T07:47:32;2.10;79.20
16347;DHT22;8283;48.504;13.734;2024-01-30T07:49:52;2.10;79.10
16347;DHT22;8283;48.504;13.734;2024-01-30T07:52:11;2.10;79.30
16347;DHT22;8283;48.504;13.734;2024-01-30T07:54:31;2.20;79.30
16347;DHT22;8283;48.504;13.734;2024-01-30T07:56:52;2.20;79.40
16347;DHT22;8283;48.504;13.734;2024-01-30T07:59:11;2.20;79.40
16347;DHT22;8283;48.504;13.734;2024-01-30T08:01:31;2.20;79.50
16347;DHT22;8283;48.504;13.734;2024-01-30T08:03:50;2.30;79.50
16347;DHT22;8283;48.504;13.734;2024-01-30T08:06:10;2.30;79.50
16347;DHT22;8283;48.504;13.734;2024-01-30T08:08:29;2.30;79.40
16347;DHT22;8283;48.504;13.734;2024-01-30T08:10:49;2.40;79.60
16347;DHT22;8283;48.504;13.734;2024-01-30T08:13:09;2.40;79.50
16347;DHT22;8283;48.504;13.734;2024-01-30T08:15:28;2.50;79.70
16347;DHT22;8283;48.504;13.734;2024-01-30T08:17:47;2.60;79.80
16347;DHT22;8283;48.504;13.734;2024-01-30T08:20:07;2.50;79.70
16347;DHT22;8283;48.504;13.734;2024-01-30T08:22:27;2.60;79.70
16347;DHT22;8283;48.504;13.734;2024-01-30T08:24:47;2.70;79.80
16347;DHT22;8283;48.504;13.734;2024-01-30T08:27:07;2.70;79.80
16347;DHT22;8283;48.504;13.734;2024-01-30T08:29:28;2.70;79.70
16347;DHT22;8283;48.504;13.734;2024-01-30T08:31:47;2.80;79.90
16347;DHT22;8283;48.504;13.734;2024-01-30T08:34:07;2.80;79.90
16347;DHT22;8283;48.504;13.734;2024-01-30T08:36:26;2.90;80.00
16347;DHT22;8283;48.504;13.734;2024-01-30T08:38:45;2.90;80.10
16347;DHT22;8283;48.504;13.734;2024-01-30T08:41:05;3.00;80.10
16347;DHT22;8283;48.504;13.734;2024-01-30T08:43:24;3.10;80.20
16347;DHT22;8283;48.504;13.734;2024-01-30T08:45:43;3.10;80.20
16347;DHT22;8283;48.504;13.734;2024-01-30T08:48:03;3.20;80.40
16347;DHT22;8283;48.504;13.734;2024-01-30T08:50:22;3.80;81.40
16347;DHT22;8283;48.504;13.734;2024-01-30T08:52:42;3.40;80.60
16347;DHT22;8283;48.504;13.734;2024-01-30T08:55:01;3.40;80.80
16347;DHT22;8283;48.504;13.734;2024-01-30T08:57:21;3.50;80.90
16347;DHT22;8283;48.504;13.734;2024-01-30T08:59:40;3.60;81.10
16347;DHT22;8283;48.504;13.734;2024-01-30T09:01:59;3.80;81.30
16347;DHT22;8283;48.504;13.734;2024-01-30T09:04:19;3.90;81.50
16347;DHT22;8283;48.504;13.734;2024-01-30T09:06:38;4.00;81.50
16347;DHT22;8283;48.504;13.734;2024-01-30T09:08:58;4.20;81.60
16347;DHT22;8283;48.504;13.734;2024-01-30T09:11:18;4.30;81.60
16347;DHT22;8283;48.504;13.734;2024-01-30T09:13:37;4.40;81.50
16347;DHT22;8283;48.504;13.734;2024-01-30T09:15:57;4.60;81.50
16347;DHT22;8283;48.504;13.734;2024-01-30T09:18:16;4.70;81.40
16347;DHT22;8283;48.504;13.734;2024-01-30T09:20:35;4.80;81.30
16347;DHT22;8283;48.504;13.734;2024-01-30T09:22:54;4.90;81.30
16347;DHT22;8283;48.504;13.734;2024-01-30T09:25:14;5.10;81.20
16347;DHT22;8283;48.504;13.734;2024-01-30T09:27:33;5.20;81.10
16347;DHT22;8283;48.504;13.734;2024-01-30T09:29:52;5.30;81.00
16347;DHT22;8283;48.504;13.734;2024-01-30T09:32:11;5.40;81.00
16347;DHT22;8283;48.504;13.734;2024-01-30T09:34:31;5.50;81.00
16347;DHT22;8283;48.504;13.734;2024-01-30T09:36:50;5.60;80.90
16347;DHT22;8283;48.504;13.734;2024-01-30T09:39:09;5.70;81.00
16347;DHT22;8283;48.504;13.734;2024-01-30T09:41:29;5.80;81.00
16347;DHT22;8283;48.504;13.734;2024-01-30T09:43:51;5.90;80.90
16347;DHT22;8283;48.504;13.734;2024-01-30T09:46:12;6.10;80.80
16347;DHT22;8283;48.504;13.734;2024-01-30T09:48:34;6.20;81.10
16347;DHT22;8283;48.504;13.734;2024-01-30T09:50:53;6.30;81.20
16347;DHT22;8283;48.504;13.734;2024-01-30T09:53:14;6.40;80.90
16347;DHT22;8283;48.504;13.734;2024-01-30T09:55:36;6.50;80.80
16347;DHT22;8283;48.504;13.734;2024-01-30T09:57:55;6.70;80.80
16347;DHT22;8283;48.504;13.734;2024-01-30T10:00:14;6.80;80.70
16347;DHT22;8283;48.504;13.734;2024-01-30T10:02:35;6.90;80.70
16347;DHT22;8283;48.504;13.734;2024-01-30T10:04:54;7.00;80.50
16347;DHT22;8283;48.504;13.734;2024-01-30T10:07:14;7.10;80.50
16347;DHT22;8283;48.504;13.734;2024-01-30T10:09:33;7.30;80.40
16347;DHT22;8283;48.504;13.734;2024-01-30T10:11:53;7.40;80.30
16347;DHT22;8283;48.504;13.734;2024-01-30T10:14:13;7.60;80.30
16347;DHT22;8283;48.504;13.734;2024-01-30T10:16:32;7.70;80.20
16347;DHT22;8283;48.504;13.734;2024-01-30T10:18:53;7.80;80.00
16347;DHT22;8283;48.504;13.734;2024-01-30T10:21:12;7.90;80.00
16347;DHT22;8283;48.504;13.734;2024-01-30T10:23:32;8.10;80.20
16347;DHT22;8283;48.504;13.734;2024-01-30T10:25:52;8.20;80.10
16347;DHT22;8283;48.504;13.734;2024-01-30T10:28:11;8.40;79.90
16347;DHT22;8283;48.504;13.734;2024-01-30T10:30:31;8.50;79.80
16347;DHT22;8283;48.504;13.734;2024-01-30T10:32:50;8.70;79.50
16347;DHT22;8283;48.504;13.734;2024-01-30T10:35:10;8.80;79.30
16347;DHT22;8283;48.504;13.734;2024-01-30T10:37:30;8.90;79.10
16347;DHT22;8283;48.504;13.734;2024-01-30T10:39:53;9.10;79.10
16347;DHT22;8283;48.504;13.734;2024-01-30T10:42:17;9.20;78.70
16347;DHT22;8283;48.504;13.734;2024-01-30T10:47:29;9.40;78.00
16347;DHT22;8283;48.504;13.734;2024-01-30T10:49:49;9.50;78.20
16347;DHT22;8283;48.504;13.734;2024-01-30T10:52:10;9.70;78.60
16347;DHT22;8283;48.504;13.734;2024-01-30T10:54:33;9.80;78.40
16347;DHT22;8283;48.504;13.734;2024-01-30T10:56:54;9.90;78.00
16347;DHT22;8283;48.504;13.734;2024-01-30T10:59:14;10.10;78.10
16347;DHT22;8283;48.504;13.734;2024-01-30T11:01:35;10.20;77.80
16347;DHT22;8283;48.504;13.734;2024-01-30T11:03:55;10.30;77.60
16347;DHT22;8283;48.504;13.734;2024-01-30T11:06:15;10.40;77.20
16347;DHT22;8283;48.504;13.734;2024-01-30T11:08:37;10.50;77.10
16347;DHT22;8283;48.504;13.734;2024-01-30T11:10:57;10.60;76.90
16347;DHT22;8283;48.504;13.734;2024-01-30T11:13:19;10.70;76.60
16347;DHT22;8283;48.504;13.734;2024-01-30T11:15:38;10.70;76.10
16347;DHT22;8283;48.504;13.734;2024-01-30T11:17:58;10.80;76.20
16347;DHT22;8283;48.504;13.734;2024-01-30T11:20:20;10.90;76.00
16347;DHT22;8283;48.504;13.734;2024-01-30T11:22:44;10.90;75.20
16347;DHT22;8283;48.504;13.734;2024-01-30T11:25:04;10.90;75.30
16347;DHT22;8283;48.504;13.734;2024-01-30T11:27:23;10.90;75.00
16347;DHT22;8283;48.504;13.734;2024-01-30T11:29:43;11.00;75.20
16347;DHT22;8283;48.504;13.734;2024-01-30T11:32:02;11.00;74.80
16347;DHT22;8283;48.504;13.734;2024-01-30T11:34:22;11.00;74.80
16347;DHT22;8283;48.504;13.734;2024-01-30T11:36:43;11.00;74.70
16347;DHT22;8283;48.504;13.734;2024-01-30T11:39:05;11.00;74.50
16347;DHT22;8283;48.504;13.734;2024-01-30T11:41:25;11.00;74.20
16347;DHT22;8283;48.504;13.734;2024-01-30T11:43:54;11.00;74.20
16347;DHT22;8283;48.504;13.734;2024-01-30T11:46:13;11.00;73.20
16347;DHT22;8283;48.504;13.734;2024-01-30T11:48:33;11.00;74.30
16347;DHT22;8283;48.504;13.734;2024-01-30T11:50:52;11.00;74.20
16347;DHT22;8283;48.504;13.734;2024-01-30T11:53:12;11.10;74.20
16347;DHT22;8283;48.504;13.734;2024-01-30T11:55:31;11.10;74.10
16347;DHT22;8283;48.504;13.734;2024-01-30T11:57:55;11.10;74.50
16347;DHT22;8283;48.504;13.734;2024-01-30T12:00:18;11.50;73.50
16347;DHT22;8283;48.504;13.734;2024-01-30T12:02:37;11.10;72.90
16347;DHT22;8283;48.504;13.734;2024-01-30T12:04:57;11.00;73.10
16347;DHT22;8283;48.504;13.734;2024-01-30T12:07:16;11.00;73.10
16347;DHT22;8283;48.504;13.734;2024-01-30T12:09:35;10.90;72.80
16347;DHT22;8283;48.504;13.734;2024-01-30T12:11:55;10.80;72.80
16347;DHT22;8283;48.504;13.734;2024-01-30T12:14:16;10.80;72.80
16347;DHT22;8283;48.504;13.734;2024-01-30T12:16:36;10.70;72.60
16347;DHT22;8283;48.504;13.734;2024-01-30T12:19:01;10.70;72.80
16347;DHT22;8283;48.504;13.734;2024-01-30T12:21:21;10.60;72.10
16347;DHT22;8283;48.504;13.734;2024-01-30T12:23:40;10.60;72.80
16347;DHT22;8283;48.504;13.734;2024-01-30T12:26:01;10.50;72.70
16347;DHT22;8283;48.504;13.734;2024-01-30T12:28:22;10.50;72.60
16347;DHT22;8283;48.504;13.734;2024-01-30T12:30:42;10.50;72.90
16347;DHT22;8283;48.504;13.734;2024-01-30T12:33:01;10.50;72.90
16347;DHT22;8283;48.504;13.734;2024-01-30T12:35:23;10.50;72.80
16347;DHT22;8283;48.504;13.734;2024-01-30T12:37:44;10.50;73.00
16347;DHT22;8283;48.504;13.734;2024-01-30T12:40:04;10.50;72.70
16347;DHT22;8283;48.504;13.734;2024-01-30T12:42:27;10.60;72.50
16347;DHT22;8283;48.504;13.734;2024-01-30T12:44:46;10.60;72.30
16347;DHT22;8283;48.504;13.734;2024-01-30T12:47:06;10.60;72.70
16347;DHT22;8283;48.504;13.734;2024-01-30T12:49:27;10.60;72.60
16347;DHT22;8283;48.504;13.734;2024-01-30T12:51:47;10.60;72.60
16347;DHT22;8283;48.504;13.734;2024-01-30T12:54:06;10.70;72.40
16347;DHT22;8283;48.504;13.734;2024-01-30T12:56:26;10.70;72.30
16347;DHT22;8283;48.504;13.734;2024-01-30T12:58:45;10.60;72.00
16347;DHT22;8283;48.504;13.734;2024-01-30T13:01:05;10.70;72.00
16347;DHT22;8283;48.504;13.734;2024-01-30T13:03:24;10.70;71.90
16347;DHT22;8283;48.504;13.734;2024-01-30T13:05:43;10.70;71.70
16347;DHT22;8283;48.504;13.734;2024-01-30T13:08:03;10.60;71.50
16347;DHT22;8283;48.504;13.734;2024-01-30T13:10:23;10.60;71.40
16347;DHT22;8283;48.504;13.734;2024-01-30T13:12:42;10.60;71.50
16347;DHT22;8283;48.504;13.734;2024-01-30T13:15:02;10.60;71.40
16347;DHT22;8283;48.504;13.734;2024-01-30T13:17:23;10.50;71.30
16347;DHT22;8283;48.504;13.734;2024-01-30T13:19:42;10.50;71.30
16347;DHT22;8283;48.504;13.734;2024-01-30T13:22:02;10.50;71.20
16347;DHT22;8283;48.504;13.734;2024-01-30T13:24:21;10.50;71.20
16347;DHT22;8283;48.504;13.734;2024-01-30T13:26:42;10.50;71.30
16347;DHT22;8283;48.504;13.734;2024-01-30T13:29:02;10.50;71.10
16347;DHT22;8283;48.504;13.734;2024-01-30T13:31:22;10.50;71.30
16347;DHT22;8283;48.504;13.734;2024-01-30T13:33:42;10.40;71.10
16347;DHT22;8283;48.504;13.734;2024-01-30T13:36:01;10.40;71.10
16347;DHT22;8283;48.504;13.734;2024-01-30T13:38:21;10.40;70.80
16347;DHT22;8283;48.504;13.734;2024-01-30T13:40:40;10.30;70.80
16347;DHT22;8283;48.504;13.734;2024-01-30T13:42:59;10.30;70.50
16347;DHT22;8283;48.504;13.734;2024-01-30T13:45:19;10.20;70.40
16347;DHT22;8283;48.504;13.734;2024-01-30T13:47:38;10.10;70.30
16347;DHT22;8283;48.504;13.734;2024-01-30T13:49:58;10.00;70.20
16347;DHT22;8283;48.504;13.734;2024-01-30T13:52:17;10.00;70.30
16347;DHT22;8283;48.504;13.734;2024-01-30T13:54:36;9.90;70.20
16347;DHT22;8283;48.504;13.734;2024-01-30T13:56:56;9.80;70.20
16347;DHT22;8283;48.504;13.734;2024-01-30T13:59:15;9.70;70.30
16347;DHT22;8283;48.504;13.734;2024-01-30T14:01:41;9.60;70.30
16347;DHT22;8283;48.504;13.734;2024-01-30T14:04:01;9.50;70.30
16347;DHT22;8283;48.504;13.734;2024-01-30T14:06:20;9.50;70.40
16347;DHT22;8283;48.504;13.734;2024-01-30T14:08:39;9.40;70.50
16347;DHT22;8283;48.504;13.734;2024-01-30T14:10:58;9.30;70.50
16347;DHT22;8283;48.504;13.734;2024-01-30T14:13:18;9.30;70.60
16347;DHT22;8283;48.504;13.734;2024-01-30T14:15:37;9.20;70.50
16347;DHT22;8283;48.504;13.734;2024-01-30T14:17:57;9.10;70.50
16347;DHT22;8283;48.504;13.734;2024-01-30T14:20:16;9.00;70.50
16347;DHT22;8283;48.504;13.734;2024-01-30T14:22:36;9.00;70.60
16347;DHT22;8283;48.504;13.734;2024-01-30T14:24:56;8.90;70.70
16347;DHT22;8283;48.504;13.734;2024-01-30T14:27:15;8.80;70.80
16347;DHT22;8283;48.504;13.734;2024-01-30T14:29:34;8.80;70.90
16347;DHT22;8283;48.504;13.734;2024-01-30T14:31:54;8.70;70.80
16347;DHT22;8283;48.504;13.734;2024-01-30T14:34:13;8.70;70.90
16347;DHT22;8283;48.504;13.734;2024-01-30T14:36:33;8.60;71.00
16347;DHT22;8283;48.504;13.734;2024-01-30T14:38:52;8.50;70.90
16347;DHT22;8283;48.504;13.734;2024-01-30T14:41:11;8.50;71.00
16347;DHT22;8283;48.504;13.734;2024-01-30T14:43:30;7.80;70.70
16347;DHT22;8283;48.504;13.734;2024-01-30T14:45:50;8.40;71.20
16347;DHT22;8283;48.504;13.734;2024-01-30T14:48:11;8.40;71.20
16347;DHT22;8283;48.504;13.734;2024-01-30T14:50:30;8.30;71.30
16347;DHT22;8283;48.504;13.734;2024-01-30T14:52:50;8.20;71.30
16347;DHT22;8283;48.504;13.734;2024-01-30T14:55:09;8.20;71.40
16347;DHT22;8283;48.504;13.734;2024-01-30T14:57:28;8.10;71.40